createdAt,value
2018-12-12T00:01:35.321Z,5.70
2018-12-12T00:04:14.977Z,5.70
2018-12-12T00:06:46.517Z,5.53
2018-12-12T00:09:33.760Z,5.77
2018-12-12T00:15:19.323Z,5.53
2018-12-12T00:17:59.795Z,5.67
2018-12-12T00:20:34.986Z,5.23
2018-12-12T00:23:15.158Z,5.60
2018-12-12T00:25:53.737Z,5.17
2018-12-12T00:28:39.946Z,5.43
2018-12-12T00:31:26.752Z,5.20
2018-12-12T00:34:08.779Z,5.53
2018-12-12T00:36:39.625Z,5.43
2018-12-12T00:42:14.205Z,5.60
2018-12-12T00:44:45.105Z,5.23
2018-12-12T00:47:18.341Z,5.53
2018-12-12T00:52:48.701Z,5.50
2018-12-12T00:55:22.657Z,6.10
2018-12-12T00:58:10.266Z,5.73
2018-12-12T01:03:34.235Z,5.70
2018-12-12T01:06:05.339Z,5.60
2018-12-12T01:08:44.932Z,5.43
2018-12-12T01:11:21.856Z,5.87
2018-12-12T01:13:58.435Z,5.90
2018-12-12T01:16:29.498Z,5.63
2018-12-12T01:19:00.655Z,4.87
2018-12-12T01:21:30.044Z,5.53
2018-12-12T01:24:01.270Z,5.03
2018-12-12T01:26:31.989Z,5.23
2018-12-12T01:29:11.709Z,5.20
2018-12-12T01:34:44.510Z,5.37
2018-12-12T01:37:24.778Z,5.80
2018-12-12T01:39:58.088Z,5.83
2018-12-12T01:42:38.296Z,7.07
2018-12-12T01:45:11.590Z,6.30
2018-12-12T01:47:51.920Z,6.00
2018-12-12T01:50:32.768Z,4.97
2018-12-12T01:53:20.953Z,6.23
2018-12-12T01:55:52.264Z,4.67
2018-12-12T01:58:32.855Z,4.73
2018-12-12T02:01:19.300Z,4.93
2018-12-12T02:03:53.139Z,4.27
2018-12-12T02:06:25.293Z,3.90
2018-12-12T02:09:13.376Z,4.70
2018-12-12T02:11:53.574Z,4.57
2018-12-12T02:14:33.339Z,4.43
2018-12-12T02:17:04.253Z,4.50
2018-12-12T02:19:43.957Z,4.20
2018-12-12T02:22:17.245Z,4.27
2018-12-12T02:24:57.313Z,4.07
2018-12-12T02:27:28.688Z,4.17
2018-12-12T02:30:00.632Z,3.80
2018-12-12T02:32:33.834Z,3.97
2018-12-12T02:35:07.564Z,3.83
2018-12-12T02:37:47.831Z,3.90
2018-12-12T02:40:28.479Z,3.67
2018-12-12T02:43:08.096Z,3.70
2018-12-12T02:45:39.122Z,3.70
2018-12-12T02:48:19.401Z,3.90
2018-12-12T02:50:52.687Z,3.30
2018-12-12T02:53:22.321Z,3.87
2018-12-12T02:55:51.914Z,3.87
2018-12-12T02:58:31.701Z,3.67
2018-12-12T03:01:17.944Z,4.20
2018-12-12T03:03:55.735Z,4.23
2018-12-12T03:06:29.491Z,4.47
2018-12-12T03:11:52.370Z,4.40
2018-12-12T03:14:32.602Z,5.00
2018-12-12T03:20:09.146Z,5.07
2018-12-12T03:22:41.425Z,5.17
2018-12-12T03:25:12.875Z,4.90
2018-12-12T03:27:52.599Z,5.30
2018-12-12T03:30:40.936Z,5.03
2018-12-12T03:33:31.667Z,5.17
2018-12-12T03:39:15.798Z,5.60
2018-12-12T03:41:55.969Z,5.30
2018-12-12T03:44:35.877Z,5.20
2018-12-12T03:47:09.362Z,5.73
2018-12-12T03:49:38.767Z,6.00
2018-12-12T03:52:08.375Z,6.03
2018-12-12T03:54:39.088Z,5.70
2018-12-12T03:57:12.271Z,6.20
2018-12-12T04:02:52.631Z,6.70
2018-12-12T04:05:24.097Z,6.50
2018-12-12T04:07:57.285Z,6.40
2018-12-12T04:10:37.753Z,6.87
2018-12-12T04:13:17.295Z,6.20
2018-12-12T04:15:48.018Z,6.73
2018-12-12T04:18:27.784Z,7.00
2018-12-12T04:21:01.309Z,7.30
2018-12-12T04:23:34.967Z,6.60
2018-12-12T04:26:13.510Z,7.30
2018-12-12T04:28:51.862Z,7.10
2018-12-12T04:31:22.973Z,7.20
2018-12-12T04:34:00.965Z,7.13
2018-12-12T04:39:36.640Z,7.37
2018-12-12T04:42:07.251Z,6.83
2018-12-12T04:44:40.448Z,6.40
2018-12-12T04:47:11.714Z,6.10
2018-12-12T04:49:49.356Z,6.67
2018-12-12T04:52:29.558Z,6.97
2018-12-12T04:55:00.399Z,6.93
2018-12-12T04:57:34.341Z,6.90
2018-12-12T05:00:11.912Z,7.37
2018-12-12T05:02:45.719Z,7.47
2018-12-12T05:05:17.051Z,7.50
2018-12-12T05:07:50.646Z,7.43
2018-12-12T05:10:24.371Z,7.30
2018-12-12T05:13:04.226Z,7.00
2018-12-12T05:15:52.568Z,6.73
2018-12-12T05:18:30.557Z,7.20
2018-12-12T05:21:09.032Z,6.97
2018-12-12T05:23:47.274Z,6.20
2018-12-12T05:26:24.756Z,6.30
2018-12-12T05:28:58.669Z,6.10
2018-12-12T05:31:45.135Z,5.60
2018-12-12T05:34:23.282Z,5.33
2018-12-12T05:37:11.211Z,6.10
2018-12-12T05:42:48.145Z,6.53
2018-12-12T05:45:22.326Z,5.40
2018-12-12T05:47:54.012Z,6.23
2018-12-12T05:50:34.282Z,6.23
2018-12-12T05:53:07.348Z,6.00
2018-12-12T06:04:54.090Z,5.20
2018-12-12T06:07:28.228Z,5.20
2018-12-12T06:10:08.448Z,5.20
2018-12-12T06:12:52.084Z,5.00
2018-12-12T06:15:25.561Z,5.40
2018-12-12T06:17:59.626Z,5.60
2018-12-12T06:20:32.947Z,6.57
2018-12-12T06:23:04.585Z,8.00
2018-12-12T06:25:35.905Z,7.17
2018-12-12T06:28:26.262Z,6.20
2018-12-12T06:33:50.223Z,5.63
2018-12-12T06:36:23.622Z,7.47
2018-12-12T06:39:11.315Z,7.30
2018-12-12T06:41:52.398Z,7.20
2018-12-12T06:44:23.597Z,6.93
2018-12-12T06:46:54.734Z,6.40
2018-12-12T06:49:36.296Z,6.63
2018-12-12T06:52:07.353Z,6.87
2018-12-12T06:54:54.156Z,6.43
2018-12-12T06:57:34.364Z,6.93
2018-12-12T07:03:00.543Z,7.83
2018-12-12T07:05:34.207Z,7.23
2018-12-12T07:08:25.036Z,8.10
2018-12-12T07:11:05.234Z,8.93
2018-12-12T07:13:38.708Z,10.00
2018-12-12T07:16:12.167Z,9.57
2018-12-12T07:18:43.813Z,9.83
2018-12-12T07:21:23.571Z,9.37
2018-12-12T07:24:05.707Z,10.50
2018-12-12T07:26:39.647Z,9.77
2018-12-12T07:32:12.491Z,9.10
2018-12-12T07:34:53.055Z,9.40
2018-12-12T07:37:30.396Z,9.37
2018-12-12T07:40:02.013Z,8.57
2018-12-12T07:42:41.643Z,8.87
2018-12-12T07:45:16.577Z,7.97
2018-12-12T07:48:01.452Z,7.83
2018-12-12T07:50:31.799Z,8.30
2018-12-12T07:53:05.578Z,9.53
2018-12-12T07:55:53.408Z,8.23
2018-12-12T07:58:27.083Z,7.90
2018-12-12T08:01:00.779Z,8.57
2018-12-12T08:03:44.904Z,7.83
2018-12-12T08:06:24.532Z,8.43
2018-12-12T08:09:04.751Z,8.50
2018-12-12T08:11:43.377Z,8.07
2018-12-12T08:14:14.707Z,7.70
2018-12-12T08:16:47.987Z,7.63
2018-12-12T08:19:17.369Z,7.23
2018-12-12T08:21:57.104Z,7.10
2018-12-12T08:27:42.260Z,7.33
2018-12-12T08:30:22.889Z,7.30
2018-12-12T08:33:02.544Z,7.03
2018-12-12T08:35:42.459Z,7.57
2018-12-12T08:38:30.493Z,6.83
2018-12-12T08:41:04.227Z,7.33
2018-12-12T08:43:39.130Z,6.83
2018-12-12T08:46:12.855Z,6.20
2018-12-12T08:48:44.144Z,5.30
2018-12-12T08:51:23.758Z,5.70
2018-12-12T09:00:09.674Z,5.87
2018-12-12T09:02:51.091Z,6.03
2018-12-12T09:05:48.081Z,4.80
2018-12-12T09:08:36.101Z,5.73
2018-12-12T09:11:10.274Z,4.60
2018-12-12T09:13:44.037Z,4.63
2018-12-12T09:16:33.177Z,4.40
2018-12-12T09:19:06.950Z,4.50
2018-12-12T09:21:55.376Z,3.93
2018-12-12T09:24:35.642Z,3.73
2018-12-12T09:27:14.172Z,4.80
2018-12-12T09:29:52.318Z,3.50
2018-12-12T09:32:23.801Z,3.77
2018-12-12T09:35:03.920Z,3.90
2018-12-12T09:37:34.878Z,4.00
2018-12-12T09:40:12.840Z,3.60
2018-12-12T09:42:46.763Z,3.60
2018-12-12T09:45:21.914Z,3.37
2018-12-12T09:48:08.187Z,3.53
2018-12-12T09:50:48.654Z,3.20
2018-12-12T09:53:20.386Z,3.93
2018-12-12T09:56:01.527Z,3.50
2018-12-12T09:58:48.609Z,3.23
2018-12-12T10:01:32.112Z,3.33
2018-12-12T10:04:09.399Z,2.80
2018-12-12T10:06:41.248Z,2.80
2018-12-12T10:09:19.739Z,3.00
2018-12-12T10:11:54.202Z,3.40
2018-12-12T10:14:40.296Z,3.13
2018-12-12T10:17:20.950Z,3.33
2018-12-12T10:20:01.110Z,2.80
2018-12-12T10:22:32.317Z,3.33
2018-12-12T10:25:04.782Z,3.40
2018-12-12T10:27:38.656Z,3.73
2018-12-12T10:30:18.720Z,3.87
2018-12-12T10:32:50.477Z,4.37
2018-12-12T10:38:36.174Z,4.00
2018-12-12T10:41:09.733Z,4.10
2018-12-12T10:43:56.097Z,4.37
2018-12-12T10:46:27.804Z,3.97
2018-12-12T10:49:08.306Z,7.27
2018-12-12T10:51:48.815Z,5.20
2018-12-12T10:57:30.870Z,6.00
2018-12-12T11:00:00.917Z,6.40
2018-12-12T11:02:31.535Z,5.83
2018-12-12T11:05:03.124Z,6.83
2018-12-12T11:07:41.449Z,6.93
2018-12-12T11:10:19.670Z,7.10
2018-12-12T11:12:59.442Z,7.90
2018-12-12T11:15:33.860Z,6.90
2018-12-12T11:18:05.123Z,7.60
2018-12-12T11:20:52.963Z,6.97
2018-12-12T11:23:23.071Z,6.97
2018-12-12T11:25:56.789Z,7.53
2018-12-12T11:28:34.698Z,7.83
2018-12-12T11:34:18.475Z,7.90
2018-12-12T11:36:49.758Z,7.83
2018-12-12T11:39:36.243Z,7.83
2018-12-12T11:42:11.005Z,8.57
2018-12-12T11:44:43.693Z,8.03
2018-12-12T11:47:23.490Z,8.70
2018-12-12T11:49:58.434Z,8.90
2018-12-12T11:52:38.797Z,8.97
2018-12-12T11:55:20.577Z,9.23
2018-12-12T11:57:53.904Z,10.73
2018-12-12T12:00:41.549Z,9.97
2018-12-12T12:03:21.952Z,9.43
2018-12-12T12:06:03.474Z,39.80
2018-12-12T12:08:41.237Z,8.67
2018-12-12T12:11:27.577Z,9.47
2018-12-12T12:13:59.471Z,8.07
2018-12-12T12:16:31.465Z,8.13
2018-12-12T12:21:49.562Z,9.17
2018-12-12T12:24:24.384Z,8.80
2018-12-12T12:27:11.161Z,8.77
2018-12-12T12:29:40.898Z,9.90
2018-12-12T12:32:14.623Z,9.60
2018-12-12T12:34:49.735Z,9.47
2018-12-12T12:37:37.717Z,9.47
2018-12-12T12:40:18.348Z,9.93
2018-12-12T12:46:04.903Z,9.80
2018-12-12T12:51:46.680Z,10.37
2018-12-12T12:54:27.344Z,10.33
2018-12-12T13:00:20.390Z,10.60
2018-12-12T13:02:54.368Z,11.00
2018-12-12T13:05:26.082Z,11.17
2018-12-12T13:10:58.571Z,11.23
2018-12-12T13:13:38.479Z,11.97
2018-12-12T13:16:09.439Z,11.63
2018-12-12T13:18:54.369Z,9.50
2018-12-12T13:21:35.022Z,10.70
2018-12-12T13:24:04.305Z,11.20
2018-12-12T13:26:37.633Z,11.50
2018-12-12T13:29:17.924Z,11.00
2018-12-12T13:37:43.081Z,11.47
2018-12-12T13:40:14.551Z,10.77
2018-12-12T13:42:54.409Z,11.33
2018-12-12T13:45:28.212Z,10.37
2018-12-12T13:51:00.261Z,11.37
2018-12-12T13:53:35.907Z,11.27
2018-12-12T13:56:07.260Z,11.97
2018-12-12T13:58:41.377Z,11.80
2018-12-12T14:01:21.665Z,11.60
2018-12-12T14:03:55.368Z,11.20
2018-12-12T14:06:35.436Z,10.20
2018-12-12T14:09:08.972Z,11.43
2018-12-12T14:14:43.804Z,11.80
2018-12-12T14:17:15.387Z,12.07
2018-12-12T14:19:53.102Z,11.70
2018-12-12T14:22:24.610Z,10.80
2018-12-12T14:24:56.358Z,11.83
2018-12-12T14:27:38.973Z,11.00
2018-12-12T14:30:27.294Z,11.80
2018-12-12T14:33:16.016Z,12.23
2018-12-12T14:35:50.014Z,11.97
2018-12-12T14:38:38.569Z,11.40
2018-12-12T14:41:19.027Z,10.73
2018-12-12T14:43:58.670Z,11.73
2018-12-12T14:46:29.552Z,11.50
2018-12-12T14:49:11.448Z,11.03
2018-12-12T14:51:44.796Z,10.97
2018-12-12T14:54:14.500Z,10.83
2018-12-12T14:56:47.816Z,12.13
2018-12-12T14:59:17.368Z,11.40
2018-12-12T15:04:50.333Z,11.33
2018-12-12T15:07:23.904Z,11.47
2018-12-12T15:09:55.435Z,11.93
2018-12-12T15:12:35.312Z,12.00
2018-12-12T15:15:06.658Z,12.83
2018-12-12T15:20:49.765Z,12.00
2018-12-12T15:28:31.985Z,12.30
2018-12-12T15:31:09.585Z,12.40
2018-12-12T15:36:48.521Z,12.67
2018-12-12T15:39:21.735Z,13.07
2018-12-12T15:42:01.919Z,13.33
2018-12-12T15:44:35.464Z,13.17
2018-12-12T15:47:09.166Z,13.53
2018-12-12T15:49:55.906Z,13.83
2018-12-12T15:52:27.144Z,13.03
2018-12-12T15:55:17.280Z,13.20
2018-12-12T15:57:46.725Z,13.20
2018-12-12T16:00:17.866Z,13.97
2018-12-12T16:05:48.330Z,13.80
2018-12-12T16:08:36.909Z,14.23
2018-12-12T16:11:27.637Z,14.23
2018-12-12T16:14:07.172Z,13.97
2018-12-12T16:19:46.893Z,13.70
2018-12-12T16:22:27.815Z,13.07
2018-12-12T16:24:59.184Z,12.87
2018-12-12T16:27:30.039Z,13.70
2018-12-12T16:30:03.500Z,13.53
2018-12-12T16:32:34.784Z,12.47
2018-12-12T16:35:08.845Z,12.20
2018-12-12T16:37:40.287Z,12.57
2018-12-12T16:40:20.286Z,12.17
2018-12-12T16:43:02.048Z,12.70
2018-12-12T16:45:33.321Z,12.77
2018-12-12T16:48:04.915Z,12.37
2018-12-12T16:50:45.219Z,12.17
2018-12-12T16:53:19.077Z,11.43
2018-12-12T16:55:50.223Z,11.90
2018-12-12T16:58:21.164Z,10.97
2018-12-12T17:01:01.205Z,11.17
2018-12-12T17:03:35.136Z,11.60
2018-12-12T17:06:06.469Z,11.30
2018-12-12T17:08:37.197Z,12.13
2018-12-12T17:11:16.987Z,12.00
2018-12-12T17:14:07.847Z,11.77
2018-12-12T17:16:48.335Z,12.63
2018-12-12T17:19:34.498Z,12.23
2018-12-12T17:22:15.121Z,12.70
2018-12-12T17:24:48.268Z,13.00
2018-12-12T17:27:19.638Z,13.20
2018-12-12T17:29:54.040Z,12.83
2018-12-12T17:34:53.757Z,13.83
2018-12-12T17:37:25.019Z,12.67
2018-12-12T17:39:58.170Z,13.03
2018-12-12T17:42:27.738Z,13.00
2018-12-12T17:45:00.874Z,12.97
2018-12-12T17:47:30.453Z,13.27
2018-12-12T17:50:11.522Z,14.60
2018-12-12T17:52:51.492Z,14.50
2018-12-12T17:55:28.801Z,13.93
2018-12-12T17:58:00.356Z,13.70
2018-12-12T18:00:29.593Z,14.10
2018-12-12T18:03:10.022Z,13.30
2018-12-12T18:05:49.811Z,12.90
2018-12-12T18:08:23.357Z,13.03
2018-12-12T18:11:02.884Z,14.10
2018-12-12T18:13:34.060Z,14.33
2018-12-12T18:16:06.794Z,13.77
2018-12-12T18:18:43.349Z,13.80
2018-12-12T18:21:27.453Z,13.30
2018-12-12T18:27:06.937Z,14.53
2018-12-12T18:29:46.635Z,13.80
2018-12-12T18:32:17.915Z,13.97
2018-12-12T18:34:51.351Z,13.50
2018-12-12T18:37:37.796Z,14.47
2018-12-12T18:43:14.257Z,14.40
2018-12-12T18:45:45.565Z,14.23
2018-12-12T18:48:25.048Z,15.20
2018-12-12T18:51:05.781Z,14.97
2018-12-12T18:53:41.720Z,15.43
2018-12-12T18:59:26.814Z,14.00
2018-12-12T19:05:00.273Z,14.03
2018-12-12T19:07:40.522Z,15.03
2018-12-12T19:10:20.721Z,15.93
2018-12-12T19:13:00.403Z,15.90
2018-12-12T19:15:35.606Z,15.43
2018-12-12T19:18:09.470Z,14.70
2018-12-12T19:20:48.019Z,15.70
2018-12-12T19:23:29.349Z,15.97
2018-12-12T19:26:01.064Z,15.50
2018-12-12T19:28:41.404Z,15.43
2018-12-12T19:31:21.105Z,15.63
2018-12-12T19:33:54.715Z,16.30
2018-12-12T19:36:26.181Z,16.00
2018-12-12T19:39:07.059Z,15.40
2018-12-12T19:41:48.958Z,15.03
2018-12-12T19:44:29.336Z,15.67
2018-12-12T19:47:00.823Z,15.03
2018-12-12T19:49:43.018Z,15.37
2018-12-12T19:52:23.976Z,15.80
2018-12-12T19:54:57.729Z,15.90
2018-12-12T19:57:45.646Z,16.23
2018-12-12T20:00:27.555Z,16.57
2018-12-12T20:06:10.933Z,14.90
2018-12-12T20:08:51.446Z,15.20
2018-12-12T20:11:40.102Z,15.03
2018-12-12T20:17:17.556Z,15.17
2018-12-12T20:19:57.441Z,13.23
2018-12-12T20:25:25.909Z,12.63
2018-12-12T20:28:09.966Z,12.87
2018-12-12T20:30:51.086Z,12.13
2018-12-12T20:33:21.383Z,12.47
2018-12-12T20:35:55.017Z,12.30
2018-12-12T20:38:43.720Z,13.17
2018-12-12T20:41:24.157Z,12.60
2018-12-12T20:46:54.060Z,12.23
2018-12-12T20:49:26.078Z,12.67
2018-12-12T20:54:56.558Z,15.27
2018-12-12T20:57:36.853Z,12.33
2018-12-12T21:00:09.383Z,12.17
2018-12-12T21:02:49.756Z,12.47
2018-12-12T21:05:21.443Z,12.13
2018-12-12T21:08:02.863Z,12.30
2018-12-12T21:10:50.678Z,11.57
2018-12-12T21:13:38.618Z,12.07
2018-12-12T21:16:14.143Z,12.77
2018-12-12T21:18:49.269Z,12.13
2018-12-12T21:21:23.169Z,12.33
2018-12-12T21:24:09.469Z,13.20
2018-12-12T21:27:01.284Z,12.07
2018-12-12T21:32:31.881Z,12.80
2018-12-12T21:35:19.465Z,13.07
2018-12-12T21:37:56.681Z,14.47
2018-12-12T21:40:36.702Z,13.53
2018-12-12T21:43:15.160Z,14.03
2018-12-12T21:48:55.602Z,13.10
2018-12-12T21:51:35.946Z,14.70
2018-12-12T21:54:15.552Z,13.73
2018-12-12T21:56:50.015Z,14.40
2018-12-12T21:59:30.236Z,15.20
2018-12-12T22:02:10.968Z,14.87
2018-12-12T22:04:47.971Z,16.37
2018-12-12T22:07:22.027Z,15.27
2018-12-12T22:10:02.179Z,15.93
2018-12-12T22:12:50.661Z,15.60
2018-12-12T22:15:21.406Z,14.23
2018-12-12T22:17:59.702Z,16.13
2018-12-12T22:23:40.141Z,14.97
2018-12-12T22:26:13.811Z,15.87
2018-12-12T22:28:48.325Z,15.90
2018-12-12T22:31:19.894Z,15.97
2018-12-12T22:33:51.103Z,15.87
2018-12-12T22:36:22.161Z,16.37
2018-12-12T22:39:03.231Z,15.80
2018-12-12T22:41:43.599Z,16.40
2018-12-12T22:47:22.266Z,16.03
2018-12-12T22:49:56.056Z,16.13
2018-12-12T22:55:20.425Z,16.23
2018-12-12T22:57:54.743Z,16.90
2018-12-12T23:00:34.849Z,17.50
2018-12-12T23:03:06.390Z,16.63
2018-12-12T23:05:47.913Z,17.07
2018-12-12T23:08:28.592Z,17.50
2018-12-12T23:11:06.905Z,17.03
2018-12-12T23:13:47.122Z,16.30
2018-12-12T23:16:20.897Z,16.90
2018-12-12T23:18:54.667Z,17.13
2018-12-12T23:21:35.006Z,17.03
2018-12-12T23:24:17.830Z,16.67
2018-12-12T23:26:51.374Z,16.43
2018-12-12T23:29:22.575Z,16.53
2018-12-12T23:32:05.396Z,15.60
2018-12-12T23:34:45.780Z,16.20
2018-12-12T23:40:26.123Z,16.57
2018-12-12T23:42:59.397Z,16.83
2018-12-12T23:45:34.333Z,15.33
2018-12-12T23:48:08.007Z,17.40
2018-12-12T23:50:53.330Z,16.30
2018-12-12T23:53:38.333Z,15.73
2018-12-12T23:56:11.600Z,16.07
2018-12-12T23:58:53.450Z,16.13
